Time;durP1;ratioP1;P1;durP2;ratioP2;P2;SDS_P1;SDS_P2;PMS_P1;PMS_P2;Temp;Humidity;BMP_temperature;BMP_pressure;BME280_temperature;BME280_humidity;BME280_pressure;Samples;Min_cycle;Max_cycle;Signal;HPM_P1;HPM_P2
2022/08/25 00:00:33;;;;;;;;;;;;;;;23.77;42.07;99839.56;12223494;19;19928;-82
2022/08/25 00:04:35;;;;;;;;;;;;;;;23.77;42.14;99833.94;12226894;19;19915;-83
2022/08/25 00:08:37;;;;;;;;;;;;;;;23.75;42.24;99839.06;12205488;19;20384;-81
2022/08/25 00:12:39;;;;;;;;;;;;;;;23.69;42.98;99844.03;12227699;19;19923;-82
2022/08/25 00:16:42;;;;;;;;;;;;;;;23.66;42.63;99839.06;12204991;19;19915;-82
2022/08/25 00:20:43;;;;;;;;;;;;;;;23.63;43.61;99839.75;12224555;19;19919;-82
2022/08/25 00:24:49;;;;;;;;;;;;;;;23.59;43.61;99838.78;12224782;19;19914;-82
2022/08/25 00:28:52;;;;;;;;;;;;;;;23.54;43.88;99831.34;12202327;19;19915;-82
2022/08/25 00:32:55;;;;;;;;;;;;;;;23.49;44.33;99839.94;12222622;19;20260;-82
2022/08/25 00:36:59;;;;;;;;;;;;;;;23.47;43.96;99841.44;12222185;19;19914;-81
2022/08/25 00:41:06;;;;;;;;;;;;;;;23.39;44.12;99829.88;12200072;19;19935;-82
2022/08/25 00:45:08;;;;;;;;;;;;;;;23.34;44.76;99830.06;12222734;19;19911;-82
2022/08/25 00:49:11;;;;;;;;;;;;;;;23.31;45.23;99829.91;12222095;19;19978;-82
2022/08/25 00:53:26;;;;;;;;;;;;;;;23.25;45.12;99829.25;12198686;19;19931;-81
2022/08/25 00:57:41;;;;;;;;;;;;;;;23.18;45.55;99838.22;12223996;19;19983;-83
2022/08/25 01:01:42;;;;;;;;;;;;;;;23.09;45.92;99831.78;12198737;19;19911;-83
2022/08/25 01:05:45;;;;;;;;;;;;;;;23.03;45.95;99832.28;12221858;19;20359;-81
2022/08/25 01:09:48;;;;;;;;;;;;;;;22.93;47.07;99834.25;12225042;19;20325;-81
2022/08/25 01:13:51;;;;;;;;;;;;;;;22.87;47.19;99829.94;12211964;19;19931;-83
2022/08/25 01:17:54;;;;;;;;;;;;;;;22.87;47.94;99834.75;12232725;19;19911;-82
2022/08/25 01:21:56;;;;;;;;;;;;;;;22.86;48.09;99838.72;12228478;19;19978;-82
2022/08/25 01:26:01;;;;;;;;;;;;;;;22.85;48.34;99829.47;12210028;19;19983;-82
2022/08/25 01:30:03;;;;;;;;;;;;;;;22.81;49.90;99841.69;12230260;19;19915;-82
2022/08/25 01:34:06;;;;;;;;;;;;;;;22.80;49.64;99835.25;12227654;19;19910;-82
2022/08/25 01:38:08;;;;;;;;;;;;;;;22.76;49.46;99837.06;12209715;19;20360;-82
2022/08/25 01:42:23;;;;;;;;;;;;;;;22.77;49.84;99840.72;12227536;19;20325;-82
2022/08/25 01:46:24;;;;;;;;;;;;;;;22.73;51.08;99841.38;12228950;19;19986;-81
2022/08/25 01:50:26;;;;;;;;;;;;;;;22.74;50.63;99848.63;12207521;19;19938;-82
2022/08/25 01:54:28;;;;;;;;;;;;;;;22.69;50.49;99845.97;12230026;19;20367;-83
2022/08/25 01:58:34;;;;;;;;;;;;;;;22.64;50.36;99850.97;12229666;19;19974;-81
2022/08/25 02:02:36;;;;;;;;;;;;;;;22.54;50.31;99849.28;12204320;19;19911;-82
2022/08/25 02:06:42;;;;;;;;;;;;;;;22.41;51.35;99853.06;12229708;19;19989;-82
2022/08/25 02:10:45;;;;;;;;;;;;;;;22.27;51.64;99862.44;12207915;19;19928;-82
2022/08/25 02:14:47;;;;;;;;;;;;;;;22.13;51.62;99856.13;12228236;19;19902;-82
2022/08/25 02:18:49;;;;;;;;;;;;;;;21.96;52.39;99856.91;12228793;19;20344;-81
2022/08/25 02:22:51;;;;;;;;;;;;;;;21.84;53.20;99865.09;12201437;19;19933;-82
2022/08/25 02:26:57;;;;;;;;;;;;;;;21.74;53.63;99854.97;12226471;19;19968;-83
2022/08/25 02:30:59;;;;;;;;;;;;;;;21.66;53.99;99875.41;12225716;19;20280;-81
2022/08/25 02:35:02;;;;;;;;;;;;;;;21.60;53.78;99865.50;12203494;19;19926;-82
2022/08/25 02:39:05;;;;;;;;;;;;;;;21.54;53.91;99861.16;12225623;19;19974;-82
2022/08/25 02:43:06;;;;;;;;;;;;;;;21.49;54.53;99855.69;12224614;19;19966;-82
2022/08/25 02:47:08;;;;;;;;;;;;;;;21.43;55.25;99851.38;12203748;19;20241;-82
2022/08/25 02:51:10;;;;;;;;;;;;;;;21.37;55.48;99868.31;12225411;19;19914;-82
2022/08/25 02:55:13;;;;;;;;;;;;;;;21.34;55.74;99857.72;12267069;19;19911;-81
2022/08/25 02:59:16;;;;;;;;;;;;;;;21.30;56.36;99856.72;12256781;19;19906;-80
2022/08/25 03:03:19;;;;;;;;;;;;;;;21.27;57.22;99856.53;12250717;19;19910;-83
2022/08/25 03:07:20;;;;;;;;;;;;;;;21.23;57.15;99850.72;12234676;19;20248;-82
2022/08/25 03:11:25;;;;;;;;;;;;;;;21.19;57.17;99858.13;12211617;19;20004;-83
2022/08/25 03:15:26;;;;;;;;;;;;;;;21.14;57.41;99847.84;12231804;19;19911;-83
2022/08/25 03:19:31;;;;;;;;;;;;;;;21.11;57.52;99847.69;12232318;19;19907;-83
2022/08/25 03:23:32;;;;;;;;;;;;;;;21.08;57.79;99843.53;12208042;19;19996;-82
2022/08/25 03:27:34;;;;;;;;;;;;;;;21.05;57.69;99844.19;12229892;19;20321;-83
2022/08/25 03:31:36;;;;;;;;;;;;;;;21.02;58.65;99847.63;12240208;19;19910;-82
2022/08/25 03:35:37;;;;;;;;;;;;;;;20.98;59.08;99843.81;12211386;19;19906;-83
2022/08/25 03:39:39;;;;;;;;;;;;;;;20.96;59.08;99834.06;12230191;19;19910;-83
2022/08/25 03:43:40;;;;;;;;;;;;;;;20.91;59.27;99851.81;12208231;19;19932;-83
2022/08/25 03:47:44;;;;;;;;;;;;;;;20.86;59.79;99847.19;12229992;19;19915;-83
2022/08/25 03:51:46;;;;;;;;;;;;;;;20.78;60.24;99856.34;12229316;19;19915;-82
2022/08/25 03:55:48;;;;;;;;;;;;;;;20.72;60.43;99860.41;12206736;19;19939;-83
2022/08/25 03:59:50;;;;;;;;;;;;;;;20.65;60.83;99857.22;12228661;19;20372;-83
2022/08/25 04:03:52;;;;;;;;;;;;;;;20.60;61.68;99852.56;12225428;19;20359;-82
2022/08/25 04:07:56;;;;;;;;;;;;;;;20.52;61.83;99838.44;12204519;19;20519;-83
2022/08/25 04:11:57;;;;;;;;;;;;;;;20.47;61.79;99828.22;12225578;19;20383;-82
2022/08/25 04:15:59;;;;;;;;;;;;;;;20.42;61.58;99831.94;12226181;19;19992;-82
2022/08/25 04:20:01;;;;;;;;;;;;;;;20.40;62.77;99830.59;12204205;19;19948;-82
2022/08/25 04:24:02;;;;;;;;;;;;;;;20.41;63.74;99833.09;12222660;19;19948;-82
2022/08/25 04:28:04;;;;;;;;;;;;;;;20.44;63.58;99829.66;12225016;19;19991;-83
2022/08/25 04:32:06;;;;;;;;;;;;;;;20.46;63.31;99823.75;12200432;19;19923;-82
2022/08/25 04:36:12;;;;;;;;;;;;;;;20.47;63.76;99829.03;12223262;19;19907;-82
2022/08/25 04:40:14;;;;;;;;;;;;;;;20.53;63.45;99828.97;12222205;19;19911;-81
2022/08/25 04:44:17;;;;;;;;;;;;;;;20.57;63.72;99828.00;12205233;19;20321;-82
2022/08/25 04:48:18;;;;;;;;;;;;;;;20.60;65.02;99846.13;12234980;19;19910;-82
2022/08/25 04:52:20;;;;;;;;;;;;;;;20.67;64.24;99849.31;12232793;19;20321;-82
2022/08/25 04:56:25;;;;;;;;;;;;;;;20.69;64.08;99847.84;12213528;19;19914;-82
2022/08/25 05:00:27;;;;;;;;;;;;;;;20.69;64.43;99849.84;12234831;19;20355;-82
2022/08/25 05:04:29;;;;;;;;;;;;;;;20.69;64.30;99841.44;12233960;19;19919;-82
2022/08/25 05:08:31;;;;;;;;;;;;;;;20.68;64.21;99840.63;12213355;19;20328;-83
2022/08/25 05:12:33;;;;;;;;;;;;;;;20.73;65.23;99842.44;12233199;19;19974;-83
2022/08/25 05:16:35;;;;;;;;;;;;;;;20.78;65.45;99828.31;12235317;19;20041;-82
2022/08/25 05:20:37;;;;;;;;;;;;;;;20.83;64.89;99825.41;12212993;19;20306;-83
2022/08/25 05:24:39;;;;;;;;;;;;;;;20.85;65.17;99825.94;12233601;19;20352;-81
2022/08/25 05:28:41;;;;;;;;;;;;;;;20.89;65.29;99832.53;12210890;19;20228;-83
2022/08/25 05:32:43;;;;;;;;;;;;;;;20.90;65.21;99825.78;12230223;19;19966;-82
2022/08/25 05:36:45;;;;;;;;;;;;;;;20.97;65.96;99813.31;12232039;19;20354;-82
2022/08/25 05:40:50;;;;;;;;;;;;;;;21.03;66.55;99812.03;12209972;19;19914;-82
2022/08/25 05:44:51;;;;;;;;;;;;;;;21.11;65.70;99820.47;12231071;19;19975;-82
2022/08/25 05:48:53;;;;;;;;;;;;;;;21.18;66.68;99808.84;12231105;19;19922;-82
2022/08/25 05:52:55;;;;;;;;;;;;;;;21.27;66.13;99808.91;12208664;19;19915;-83
2022/08/25 05:56:57;;;;;;;;;;;;;;;21.31;66.47;99807.09;12228908;19;20236;-83
2022/08/25 06:02:39;;;;;;;;;;;;;;;21.37;67.67;99809.47;12230021;19;19915;-83
2022/08/25 06:05:24;;;;;;;;;;;;;;;21.48;66.96;99812.00;12209268;19;20240;-82
2022/08/25 06:09:25;;;;;;;;;;;;;;;21.60;66.89;99801.00;12230049;19;19902;-82
2022/08/25 06:13:27;;;;;;;;;;;;;;;21.71;66.51;99807.94;12230443;19;19918;-82
2022/08/25 06:17:30;;;;;;;;;;;;;;;21.80;66.31;99806.03;12209027;19;19918;-82
2022/08/25 06:21:32;;;;;;;;;;;;;;;21.92;66.75;99815.78;12229136;19;20373;-82
2022/08/25 06:25:34;;;;;;;;;;;;;;;21.98;67.54;99809.72;12231940;19;19903;-82
2022/08/25 06:29:36;;;;;;;;;;;;;;;22.17;66.56;99798.22;12210132;19;20293;-82
2022/08/25 06:33:38;;;;;;;;;;;;;;;22.30;66.04;99810.44;12228463;19;19911;-81
2022/08/25 06:37:41;;;;;;;;;;;;;;;22.44;65.06;99810.31;12223644;19;19915;-81
2022/08/25 06:41:43;;;;;;;;;;;;;;;22.53;65.66;99811.94;12279877;19;19997;-80
2022/08/25 06:45:44;;;;;;;;;;;;;;;22.66;65.26;99815.75;12281065;19;19950;-82
2022/08/25 06:49:46;;;;;;;;;;;;;;;22.85;64.31;99798.56;12259660;19;19934;-80
2022/08/25 06:53:48;;;;;;;;;;;;;;;23.05;64.39;99793.44;12246522;19;19918;-82
2022/08/25 06:57:53;;;;;;;;;;;;;;;23.21;64.40;99800.19;12235448;19;19962;-82
2022/08/25 07:01:55;;;;;;;;;;;;;;;23.36;63.92;99796.00;12212754;19;20264;-82
2022/08/25 07:05:57;;;;;;;;;;;;;;;23.58;62.99;99801.34;12231380;19;19918;-82
2022/08/25 07:09:58;;;;;;;;;;;;;;;23.75;62.65;99796.88;12246949;19;19911;-83
2022/08/25 07:14:01;;;;;;;;;;;;;;;23.96;62.10;99796.91;12213863;19;19919;-83
2022/08/25 07:18:03;;;;;;;;;;;;;;;24.18;61.62;99787.34;12233713;19;20000;-82
2022/08/25 07:22:06;;;;;;;;;;;;;;;24.43;60.93;99791.16;12230161;19;19917;-83
2022/08/25 07:26:15;;;;;;;;;;;;;;;24.64;59.71;99782.72;12209478;19;19911;-81
2022/08/25 07:30:36;;;;;;;;;;;;;;;24.82;59.21;99783.38;12230311;19;19951;-82
2022/08/25 07:38:58;;;;;;;;;;;;;;;25.38;57.84;99784.63;12230567;19;20340;-82
2022/08/25 07:43:02;;;;;;;;;;;;;;;25.44;56.87;99785.22;12228656;19;19946;-82
2022/08/25 07:47:05;;;;;;;;;;;;;;;25.68;56.10;99792.88;12207670;19;19921;-82
2022/08/25 07:51:08;;;;;;;;;;;;;;;25.97;55.54;99791.03;12228641;19;19918;-82
2022/08/25 07:55:10;;;;;;;;;;;;;;;26.19;55.51;99786.91;12228568;19;19923;-82
2022/08/25 07:59:20;;;;;;;;;;;;;;;26.41;54.32;99789.19;12207190;19;19906;-83
2022/08/25 08:03:23;;;;;;;;;;;;;;;26.65;53.66;99787.50;12226607;19;19918;-82
2022/08/25 08:07:45;;;;;;;;;;;;;;;26.74;52.60;99794.69;12209088;19;19907;-82
2022/08/25 08:11:46;;;;;;;;;;;;;;;26.86;51.98;99790.13;12229234;19;19918;-82
2022/08/25 08:15:54;;;;;;;;;;;;;;;27.20;51.83;99786.69;12227473;19;19918;-82
2022/08/25 08:19:56;;;;;;;;;;;;;;;27.50;50.87;99791.94;12201936;19;19983;-82
2022/08/25 08:23:59;;;;;;;;;;;;;;;27.68;50.37;99787.53;12226307;19;20370;-83
2022/08/25 08:28:01;;;;;;;;;;;;;;;27.86;49.71;99799.34;12226641;19;19918;-82
2022/08/25 08:32:04;;;;;;;;;;;;;;;28.01;49.25;99792.03;12202682;19;19911;-82
2022/08/25 08:36:07;;;;;;;;;;;;;;;28.16;48.80;99790.34;12223413;19;19978;-83
2022/08/25 08:40:11;;;;;;;;;;;;;;;28.23;47.89;99781.19;12224151;19;19914;-82
2022/08/25 08:44:24;;;;;;;;;;;;;;;28.37;46.84;99778.69;12199528;19;19919;-82
2022/08/25 08:48:53;;;;;;;;;;;;;;;28.34;46.43;99779.44;12223941;19;19950;-82
2022/08/25 08:53:13;;;;;;;;;;;;;;;28.61;46.42;99791.78;12199673;19;19919;-81
2022/08/25 08:57:18;;;;;;;;;;;;;;;28.94;46.27;99779.09;12224506;19;19910;-83
2022/08/25 09:01:28;;;;;;;;;;;;;;;29.11;45.32;99772.19;12223561;19;19919;-81
2022/08/25 09:05:34;;;;;;;;;;;;;;;29.17;45.03;99777.16;12200515;19;19962;-82
2022/08/25 09:09:44;;;;;;;;;;;;;;;29.28;43.50;99766.03;12223088;19;20374;-80
2022/08/25 09:13:50;;;;;;;;;;;;;;;29.17;44.20;99779.19;12200002;19;19936;-82
2022/08/25 09:17:52;;;;;;;;;;;;;;;29.36;43.02;99779.16;12222132;19;19911;-81
2022/08/25 09:22:14;;;;;;;;;;;;;;;29.29;42.34;99774.13;12220017;19;19915;-81
2022/08/25 09:26:49;;;;;;;;;;;;;;;29.48;41.79;99766.78;12242149;19;19940;-81
2022/08/25 09:31:10;;;;;;;;;;;;;;;29.67;42.05;99758.22;12276426;19;19911;-81
2022/08/25 09:35:20;;;;;;;;;;;;;;;29.93;41.74;99765.94;12218979;19;19973;-82
2022/08/25 09:39:21;;;;;;;;;;;;;;;29.93;40.69;99750.94;12255583;19;19922;-82
2022/08/25 09:43:32;;;;;;;;;;;;;;;30.16;40.45;99754.53;12255952;19;19952;-82
2022/08/25 09:47:40;;;;;;;;;;;;;;;30.21;40.16;99744.88;12218611;19;19919;-80
2022/08/25 09:51:43;;;;;;;;;;;;;;;30.18;40.18;99732.22;12237197;19;19903;-81
2022/08/25 09:55:46;;;;;;;;;;;;;;;30.22;40.71;99725.78;12213362;19;20330;-82
2022/08/25 09:59:50;;;;;;;;;;;;;;;30.52;40.06;99722.94;12234045;19;19906;-82
2022/08/25 10:03:59;;;;;;;;;;;;;;;30.59;39.09;99717.34;12231632;19;19921;-83
2022/08/25 10:08:08;;;;;;;;;;;;;;;30.87;39.20;99719.72;12211202;19;19918;-83
2022/08/25 10:12:29;;;;;;;;;;;;;;;30.82;38.49;99705.88;12231057;19;20241;-81
2022/08/25 10:16:31;;;;;;;;;;;;;;;30.81;38.26;99707.06;12233183;19;19911;-83
2022/08/25 10:20:36;;;;;;;;;;;;;;;31.09;37.61;99696.00;12210596;19;19907;-82
2022/08/25 10:24:45;;;;;;;;;;;;;;;31.21;37.14;99694.88;12233166;19;19916;-83
2022/08/25 10:28:51;;;;;;;;;;;;;;;31.49;37.13;99682.13;12210989;19;19911;-83
2022/08/25 10:33:13;;;;;;;;;;;;;;;31.67;36.60;99674.53;12230976;19;20259;-82
2022/08/25 10:37:24;;;;;;;;;;;;;;;31.79;35.90;99677.03;12236912;19;19910;-82
2022/08/25 10:41:31;;;;;;;;;;;;;;;31.69;35.78;99669.25;12208891;19;19918;-83
2022/08/25 10:45:46;;;;;;;;;;;;;;;31.78;35.52;99654.66;12231635;19;19914;-83
2022/08/25 10:49:58;;;;;;;;;;;;;;;32.11;35.33;99653.66;12210768;19;20375;-82
2022/08/25 10:54:04;;;;;;;;;;;;;;;32.40;34.83;99665.19;12227810;19;20355;-83
2022/08/25 10:58:12;;;;;;;;;;;;;;;32.52;34.82;99656.31;12232667;19;19978;-83
2022/08/25 11:02:15;;;;;;;;;;;;;;;32.10;35.05;99654.88;12210543;19;19911;-81
2022/08/25 11:06:25;;;;;;;;;;;;;;;32.34;34.72;99647.66;12229547;19;19914;-82
2022/08/25 11:10:36;;;;;;;;;;;;;;;32.44;34.38;99646.91;12229952;19;19903;-82
2022/08/25 11:14:48;;;;;;;;;;;;;;;32.24;34.13;99628.47;12207538;19;19923;-83
2022/08/25 11:18:56;;;;;;;;;;;;;;;32.33;33.88;99616.69;12230441;19;19917;-83
2022/08/25 11:23:06;;;;;;;;;;;;;;;32.77;33.36;99638.44;12205777;19;20520;-82
2022/08/25 11:27:11;;;;;;;;;;;;;;;33.06;33.05;99630.75;12229914;19;19928;-82
2022/08/25 11:31:15;;;;;;;;;;;;;;;33.19;32.74;99619.75;12229821;19;19924;-84
2022/08/25 11:35:24;;;;;;;;;;;;;;;33.20;32.64;99624.22;12205600;19;19911;-83
2022/08/25 11:39:44;;;;;;;;;;;;;;;33.44;32.17;99623.41;12228522;19;19910;-83
2022/08/25 11:43:45;;;;;;;;;;;;;;;34.06;31.44;99612.69;12205100;19;19934;-83
2022/08/25 11:47:57;;;;;;;;;;;;;;;34.58;30.55;99604.28;12228628;19;19919;-82
2022/08/25 11:51:59;;;;;;;;;;;;;;;35.18;30.45;99611.66;12228214;19;19922;-82
2022/08/25 11:56:09;;;;;;;;;;;;;;;35.90;29.55;99603.16;12204814;19;19951;-83
2022/08/25 12:00:29;;;;;;;;;;;;;;;36.50;28.71;99595.06;12226096;19;19915;-83
2022/08/25 12:04:36;;;;;;;;;;;;;;;36.49;28.05;99599.16;12225875;19;19911;-83
2022/08/25 12:08:53;;;;;;;;;;;;;;;37.09;27.10;99599.50;12206042;19;20388;-83
2022/08/25 12:12:58;;;;;;;;;;;;;;;37.21;27.26;99600.97;12224319;19;19978;-83
2022/08/25 12:17:07;;;;;;;;;;;;;;;36.76;27.47;99590.56;12202474;19;19914;-83
2022/08/25 12:21:13;;;;;;;;;;;;;;;37.34;26.13;99587.59;12226543;19;20298;-83
2022/08/25 12:25:21;;;;;;;;;;;;;;;38.21;25.50;99582.63;12227635;19;20351;-83
2022/08/25 12:29:29;;;;;;;;;;;;;;;38.98;24.94;99572.66;12204173;19;19995;-83
2022/08/25 12:33:49;;;;;;;;;;;;;;;40.01;24.19;99574.03;12222960;19;20357;-83
2022/08/25 12:38:00;;;;;;;;;;;;;;;39.80;22.60;99574.63;12209178;19;19945;-83
2022/08/25 12:42:18;;;;;;;;;;;;;;;40.28;23.16;99567.88;12220960;19;19918;-83
2022/08/25 12:46:30;;;;;;;;;;;;;;;40.39;22.16;99560.94;12222336;19;19911;-84
2022/08/25 12:50:40;;;;;;;;;;;;;;;40.40;22.15;99568.34;12200018;19;19972;-83
2022/08/25 12:54:53;;;;;;;;;;;;;;;40.27;22.47;99556.78;12222432;19;19922;-84
2022/08/25 12:59:00;;;;;;;;;;;;;;;38.40;24.06;99557.97;12199649;19;19910;-83
2022/08/25 13:03:14;;;;;;;;;;;;;;;37.52;24.95;99556.50;12218562;19;19919;-82
2022/08/25 13:07:34;;;;;;;;;;;;;;;37.73;24.99;99555.25;12230417;19;19914;-83
2022/08/25 13:11:41;;;;;;;;;;;;;;;38.77;24.16;99552.19;12211053;19;20347;-83
2022/08/25 13:15:47;;;;;;;;;;;;;;;38.80;23.42;99540.59;12233437;19;20251;-83
2022/08/25 13:20:14;;;;;;;;;;;;;;;39.46;23.47;99534.81;12210350;19;20332;-83
2022/08/25 13:24:30;;;;;;;;;;;;;;;38.63;23.71;99539.75;12230404;19;19915;-83
2022/08/25 13:28:42;;;;;;;;;;;;;;;37.89;24.20;99540.13;12210652;19;20266;-83
2022/08/25 13:32:50;;;;;;;;;;;;;;;39.34;23.15;99521.94;12230099;19;19918;-83
2022/08/25 13:41:17;;;;;;;;;;;;;;;39.43;22.69;99516.34;12207877;19;19907;-83
2022/08/25 13:45:24;;;;;;;;;;;;;;;37.79;24.03;99512.44;12234160;19;19943;-82
2022/08/25 13:49:27;;;;;;;;;;;;;;;36.46;25.09;99513.94;12236611;19;19911;-82
2022/08/25 13:53:29;;;;;;;;;;;;;;;37.53;24.52;99509.25;12210727;19;19919;-83
2022/08/25 13:57:33;;;;;;;;;;;;;;;38.50;23.57;99505.13;12234328;19;19915;-82
2022/08/25 14:01:42;;;;;;;;;;;;;;;36.88;24.93;99503.03;12237120;19;20658;-82
2022/08/25 14:06:02;;;;;;;;;;;;;;;35.58;26.72;99500.38;12217583;19;20391;-81
2022/08/25 14:10:06;;;;;;;;;;;;;;;34.84;27.21;99486.34;12237482;19;19911;-82
2022/08/25 14:14:11;;;;;;;;;;;;;;;34.47;27.51;99489.88;12213858;19;19915;-81
2022/08/25 14:18:29;;;;;;;;;;;;;;;34.01;27.97;99494.66;12232378;19;19983;-81
2022/08/25 14:22:33;;;;;;;;;;;;;;;33.39;29.06;99489.59;12234517;19;20332;-81
2022/08/25 14:26:36;;;;;;;;;;;;;;;32.80;29.90;99483.53;12214023;19;20269;-81
2022/08/25 14:30:56;;;;;;;;;;;;;;;32.50;30.05;99484.75;12235920;19;19918;-81
2022/08/25 14:34:58;;;;;;;;;;;;;;;32.35;29.87;99480.25;12218389;19;19973;-81
2022/08/25 14:39:11;;;;;;;;;;;;;;;32.45;29.61;99471.75;12243277;19;19915;-82
2022/08/25 14:43:14;;;;;;;;;;;;;;;33.41;28.55;99464.28;12233306;19;19915;-81
2022/08/25 14:47:16;;;;;;;;;;;;;;;33.93;28.80;99449.38;12210588;19;20252;-81
2022/08/25 14:51:18;;;;;;;;;;;;;;;34.02;28.48;99450.53;12229713;19;19934;-81
2022/08/25 14:55:20;;;;;;;;;;;;;;;34.88;27.70;99449.09;12233749;19;19962;-81
2022/08/25 14:59:33;;;;;;;;;;;;;;;35.68;26.77;99444.97;12214188;19;19918;-82
2022/08/25 15:03:38;;;;;;;;;;;;;;;35.18;27.01;99436.94;12232143;19;19915;-85
2022/08/25 15:12:00;;;;;;;;;;;;;;;34.45;28.17;99430.25;12231132;19;20006;-82
2022/08/25 15:16:01;;;;;;;;;;;;;;;34.07;28.50;99434.22;12230654;19;19914;-81
2022/08/25 15:20:03;;;;;;;;;;;;;;;33.90;28.71;99428.16;12210229;19;19915;-81
2022/08/25 15:24:08;;;;;;;;;;;;;;;33.61;29.10;99433.22;12227638;19;19934;-82
2022/08/25 15:28:10;;;;;;;;;;;;;;;33.15;29.67;99433.38;12229941;19;19966;-84
2022/08/25 15:32:17;;;;;;;;;;;;;;;32.82;29.49;99429.75;12206394;19;19914;-81
2022/08/25 15:36:22;;;;;;;;;;;;;;;32.63;29.65;99436.69;12228556;19;19918;-81
2022/08/25 15:40:25;;;;;;;;;;;;;;;32.31;30.57;99431.78;12228044;19;19906;-81
2022/08/25 15:44:27;;;;;;;;;;;;;;;32.13;30.50;99425.25;12205074;19;20088;-82
2022/08/25 15:48:30;;;;;;;;;;;;;;;32.20;30.27;99426.06;12228154;19;19992;-81
2022/08/25 15:52:32;;;;;;;;;;;;;;;32.14;30.36;99419.13;12226404;19;19982;-82
2022/08/25 15:56:47;;;;;;;;;;;;;;;31.89;31.31;99413.38;12249826;19;19935;-82
2022/08/25 16:00:49;;;;;;;;;;;;;;;31.96;30.91;99421.16;12278369;19;19914;-82
2022/08/25 16:04:57;;;;;;;;;;;;;;;32.55;30.25;99412.25;12218246;19;19928;-81
2022/08/25 16:08:59;;;;;;;;;;;;;;;32.66;30.04;99411.03;12232154;19;19930;-81
2022/08/25 16:13:00;;;;;;;;;;;;;;;32.55;30.59;99406.56;12232040;19;19936;-81
2022/08/25 16:17:04;;;;;;;;;;;;;;;32.44;30.45;99412.22;12208787;19;20307;-81
2022/08/25 16:21:09;;;;;;;;;;;;;;;32.45;30.86;99413.88;12229437;19;20392;-81
2022/08/25 16:25:13;;;;;;;;;;;;;;;32.62;30.08;99401.63;12228951;19;19907;-82
2022/08/25 16:29:16;;;;;;;;;;;;;;;32.40;30.50;99402.88;12208057;19;19919;-81
2022/08/25 16:33:18;;;;;;;;;;;;;;;32.28;30.71;99397.56;12228345;19;19903;-82
2022/08/25 16:37:21;;;;;;;;;;;;;;;32.17;30.59;99401.22;12228725;19;19910;-81
2022/08/25 16:41:26;;;;;;;;;;;;;;;31.95;31.14;99399.56;12204365;19;19910;-81
2022/08/25 16:45:27;;;;;;;;;;;;;;;31.76;31.17;99395.81;12227113;19;19907;-82
2022/08/25 16:49:31;;;;;;;;;;;;;;;31.65;31.57;99392.16;12229885;19;20004;-81
2022/08/25 16:57:54;;;;;;;;;;;;;;;31.48;31.66;99395.75;12226627;19;19974;-81
2022/08/25 17:01:56;;;;;;;;;;;;;;;31.32;31.98;99393.22;12203121;19;19921;-81
2022/08/25 17:05:58;;;;;;;;;;;;;;;31.21;31.90;99389.53;12225946;19;19911;-81
2022/08/25 17:10:00;;;;;;;;;;;;;;;31.16;32.13;99395.59;12224587;19;19932;-81
2022/08/25 17:14:03;;;;;;;;;;;;;;;31.13;32.11;99391.50;12205345;19;19931;-82
2022/08/25 17:18:12;;;;;;;;;;;;;;;31.13;32.07;99402.09;12225179;19;20007;-81
2022/08/25 17:22:14;;;;;;;;;;;;;;;31.24;31.78;99398.06;12224723;19;19935;-81
2022/08/25 17:26:20;;;;;;;;;;;;;;;31.13;32.08;99402.09;12203309;19;19928;-81
2022/08/25 17:30:29;;;;;;;;;;;;;;;30.91;32.38;99393.44;12230947;19;19923;-81
2022/08/25 17:34:31;;;;;;;;;;;;;;;30.82;32.27;99401.50;12225439;19;19910;-81
2022/08/25 17:38:33;;;;;;;;;;;;;;;30.68;32.75;99396.50;12203833;19;19920;-82
2022/08/25 17:42:34;;;;;;;;;;;;;;;30.56;32.95;99391.94;12221528;19;19917;-81
2022/08/25 17:46:36;;;;;;;;;;;;;;;30.49;33.07;99399.59;12225218;19;19921;-81
2022/08/25 17:50:47;;;;;;;;;;;;;;;30.74;32.70;99402.63;12207585;19;20278;-81
2022/08/25 17:54:51;;;;;;;;;;;;;;;30.49;33.35;99405.28;12236051;19;19922;-81
2022/08/25 17:58:54;;;;;;;;;;;;;;;30.17;33.60;99397.28;12213358;19;19914;-81
2022/08/25 18:02:56;;;;;;;;;;;;;;;29.85;34.20;99405.50;12235254;19;19915;-81
2022/08/25 18:06:57;;;;;;;;;;;;;;;29.55;34.56;99411.22;12234841;19;19918;-81
2022/08/25 18:11:00;;;;;;;;;;;;;;;29.22;35.26;99412.84;12214681;19;20288;-81
2022/08/25 18:15:03;;;;;;;;;;;;;;;28.92;35.49;99410.78;12280883;19;19910;-81
2022/08/25 18:19:05;;;;;;;;;;;;;;;28.67;36.16;99412.44;12280919;19;19915;-82
2022/08/25 18:23:11;;;;;;;;;;;;;;;28.39;36.49;99410.75;12258330;19;19913;-81
2022/08/25 18:27:12;;;;;;;;;;;;;;;28.15;36.66;99415.63;12274545;19;19915;-82
2022/08/25 18:31:14;;;;;;;;;;;;;;;27.91;36.99;99424.47;12236763;19;19915;-83
2022/08/25 18:35:20;;;;;;;;;;;;;;;27.70;37.67;99417.19;12213362;19;20373;-82
2022/08/25 18:43:47;;;;;;;;;;;;;;;27.37;38.09;99414.91;12214656;19;20279;-82
2022/08/25 18:47:52;;;;;;;;;;;;;;;27.24;37.99;99421.88;12234286;19;19928;-81
2022/08/25 18:51:53;;;;;;;;;;;;;;;27.11;38.13;99412.69;12242975;19;19968;-81
2022/08/25 18:55:56;;;;;;;;;;;;;;;26.98;38.67;99419.66;12213706;19;20602;-83
2022/08/25 18:59:59;;;;;;;;;;;;;;;26.89;39.25;99419.06;12234112;19;20260;-82
2022/08/25 19:04:01;;;;;;;;;;;;;;;26.79;39.03;99418.44;12230581;19;19918;-82
2022/08/25 19:08:04;;;;;;;;;;;;;;;26.72;39.42;99426.78;12212493;19;19944;-82
2022/08/25 19:12:06;;;;;;;;;;;;;;;26.61;39.62;99417.22;12233617;19;19957;-82
2022/08/25 19:16:31;;;;;;;;;;;;;;;26.52;39.82;99423.06;12233320;19;19911;-82
2022/08/25 19:20:34;;;;;;;;;;;;;;;26.46;39.78;99424.50;12209675;19;19915;-82
2022/08/25 19:24:36;;;;;;;;;;;;;;;26.40;39.92;99427.97;12231764;19;19907;-82
2022/08/25 19:28:38;;;;;;;;;;;;;;;26.34;40.38;99428.22;12214120;19;19915;-82
2022/08/25 19:32:46;;;;;;;;;;;;;;;26.29;40.18;99427.69;12230513;19;20332;-82
2022/08/25 19:36:49;;;;;;;;;;;;;;;26.22;40.44;99419.84;12231885;19;19910;-82
2022/08/25 19:40:51;;;;;;;;;;;;;;;26.19;40.81;99422.59;12209369;19;19929;-82
2022/08/25 19:44:53;;;;;;;;;;;;;;;26.13;40.59;99422.84;12230432;19;19917;-82
2022/08/25 19:48:55;;;;;;;;;;;;;;;26.11;41.27;99424.41;12231696;19;19911;-82
2022/08/25 19:52:56;;;;;;;;;;;;;;;26.09;41.12;99423.97;12208186;19;19923;-82
2022/08/25 19:56:58;;;;;;;;;;;;;;;26.07;41.69;99434.78;12230576;19;19936;-81
2022/08/25 20:01:00;;;;;;;;;;;;;;;26.05;41.53;99423.84;12229018;19;19914;-81
2022/08/25 20:05:04;;;;;;;;;;;;;;;26.01;41.81;99428.59;12205913;19;19954;-81
2022/08/25 20:09:06;;;;;;;;;;;;;;;25.98;41.96;99429.31;12231646;19;19918;-82
2022/08/25 20:13:21;;;;;;;;;;;;;;;25.94;42.26;99433.22;12229131;19;19970;-82
2022/08/25 20:17:24;;;;;;;;;;;;;;;25.89;42.27;99431.50;12204980;19;20412;-82
2022/08/25 20:21:26;;;;;;;;;;;;;;;25.86;41.96;99449.97;12227502;19;20386;-81
2022/08/25 20:25:31;;;;;;;;;;;;;;;25.84;42.50;99435.38;12229567;19;19970;-82
2022/08/25 20:29:37;;;;;;;;;;;;;;;25.83;42.56;99444.25;12206191;19;19911;-81
2022/08/25 20:33:38;;;;;;;;;;;;;;;25.81;42.93;99444.56;12225791;19;19915;-82
2022/08/25 20:37:41;;;;;;;;;;;;;;;25.80;43.05;99437.28;12206009;19;20459;-81
2022/08/25 20:41:42;;;;;;;;;;;;;;;25.79;42.80;99441.28;12227683;19;19990;-81
2022/08/25 20:45:56;;;;;;;;;;;;;;;25.77;42.82;99438.00;12227336;19;19918;-82
2022/08/25 20:50:00;;;;;;;;;;;;;;;25.80;43.29;99444.94;12206102;19;19918;-81
2022/08/25 20:54:10;;;;;;;;;;;;;;;25.87;43.71;99433.84;12224786;19;19975;-81
2022/08/25 20:58:11;;;;;;;;;;;;;;;25.91;43.12;99435.59;12226218;19;19999;-82
2022/08/25 21:02:15;;;;;;;;;;;;;;;25.90;43.79;99436.75;12204916;19;19924;-82
2022/08/25 21:06:17;;;;;;;;;;;;;;;25.90;43.65;99427.47;12226873;19;19934;-82
2022/08/25 21:10:19;;;;;;;;;;;;;;;25.87;43.97;99428.22;12227107;19;19910;-81
2022/08/25 21:14:22;;;;;;;;;;;;;;;25.80;44.13;99440.09;12204637;19;19911;-82
2022/08/25 21:18:23;;;;;;;;;;;;;;;25.74;44.08;99430.25;12226560;19;19915;-82